createdAt,value
2023-02-19T00:01:48.890Z,9.13
2023-02-19T00:04:18.724Z,10.60
2023-02-19T00:06:48.478Z,4.93
2023-02-19T00:09:18.220Z,6.80
2023-02-19T00:11:46.382Z,10.63
2023-02-19T00:14:17.801Z,14.47
2023-02-19T00:16:45.637Z,14.70
2023-02-19T00:19:15.960Z,10.40
2023-02-19T00:21:44.293Z,11.60
2023-02-19T00:24:15.481Z,8.27
2023-02-19T00:26:44.264Z,9.60
2023-02-19T00:29:15.511Z,10.33
2023-02-19T00:31:43.746Z,9.60
2023-02-19T00:34:12.670Z,9.37
2023-02-19T00:36:42.251Z,10.47
2023-02-19T00:39:15.734Z,9.70
2023-02-19T00:41:43.937Z,11.13
2023-02-19T00:44:13.064Z,10.37
2023-02-19T00:46:43.824Z,9.43
2023-02-19T00:49:17.516Z,8.93
2023-02-19T00:51:45.294Z,9.90
2023-02-19T00:54:17.149Z,6.73
2023-02-19T00:56:45.261Z,11.47
2023-02-19T00:59:13.174Z,12.00
2023-02-19T01:01:40.983Z,10.40
2023-02-19T01:04:09.078Z,11.77
2023-02-19T01:06:36.907Z,8.97
2023-02-19T01:09:05.620Z,3.47
2023-02-19T01:11:34.839Z,10.83
2023-02-19T01:14:03.560Z,12.63
2023-02-19T01:16:32.324Z,8.10
2023-02-19T01:19:00.193Z,13.30
2023-02-19T01:21:29.250Z,11.53
2023-02-19T01:23:57.483Z,6.47
2023-02-19T01:26:27.522Z,9.60
2023-02-19T01:28:56.795Z,9.57
2023-02-19T01:31:25.754Z,11.67
2023-02-19T01:33:55.734Z,9.73
2023-02-19T01:36:24.431Z,8.27
2023-02-19T01:38:52.346Z,9.87
2023-02-19T01:41:22.254Z,9.53
2023-02-19T01:44:03.482Z,7.63
2023-02-19T01:46:32.734Z,9.17
2023-02-19T01:49:05.774Z,8.90
2023-02-19T01:51:35.403Z,6.73
2023-02-19T01:54:06.348Z,9.60
2023-02-19T01:56:36.708Z,9.87
2023-02-19T01:59:07.438Z,9.03
2023-02-19T02:01:36.275Z,6.53
2023-02-19T02:04:06.406Z,6.73
2023-02-19T02:06:40.431Z,3.57
2023-02-19T02:09:26.601Z,10.30
2023-02-19T02:11:54.672Z,9.73
2023-02-19T02:14:26.689Z,1.83
2023-02-19T02:16:58.563Z,3.90
2023-02-19T02:19:37.173Z,4.30
2023-02-19T02:22:12.517Z,6.67
2023-02-19T02:25:01.744Z,9.20
2023-02-19T02:27:42.436Z,9.40
2023-02-19T02:30:21.950Z,10.23
2023-02-19T02:32:57.656Z,8.07
2023-02-19T02:35:29.348Z,8.63
2023-02-19T02:38:01.911Z,11.40
2023-02-19T02:40:30.280Z,7.43
2023-02-19T02:42:58.889Z,12.03
2023-02-19T02:45:37.898Z,6.50
2023-02-19T02:48:15.109Z,7.20
2023-02-19T02:50:47.223Z,5.50
2023-02-19T02:53:38.473Z,6.53
2023-02-19T02:56:06.756Z,6.90
2023-02-19T02:58:35.732Z,7.07
2023-02-19T03:01:27.584Z,7.67
2023-02-19T03:04:01.922Z,6.97
2023-02-19T03:06:34.731Z,10.63
2023-02-19T03:09:10.334Z,6.47
2023-02-19T03:11:59.098Z,7.57
2023-02-19T03:14:49.352Z,6.70
2023-02-19T03:17:41.447Z,10.50
2023-02-19T03:20:14.740Z,3.20
2023-02-19T03:22:45.704Z,5.77
2023-02-19T03:25:35.015Z,7.97
2023-02-19T03:28:05.015Z,9.93
2023-02-19T03:30:38.752Z,15.53
2023-02-19T03:33:11.817Z,6.70
2023-02-19T03:35:42.936Z,5.57
2023-02-19T03:38:18.754Z,4.17
2023-02-19T03:40:55.617Z,6.63
2023-02-19T03:43:28.372Z,4.03
2023-02-19T03:46:04.605Z,4.93
2023-02-19T03:48:36.086Z,9.97
2023-02-19T03:51:14.694Z,6.97
2023-02-19T03:53:53.381Z,8.10
2023-02-19T03:56:26.744Z,6.50
2023-02-19T03:59:00.194Z,8.60
2023-02-19T04:01:33.030Z,8.73
2023-02-19T04:04:07.540Z,8.40
2023-02-19T04:06:37.928Z,10.80
2023-02-19T04:09:09.901Z,2.97
2023-02-19T04:11:39.880Z,6.33
2023-02-19T04:14:12.057Z,5.53
2023-02-19T04:16:43.506Z,4.83
2023-02-19T04:19:16.905Z,7.27
2023-02-19T04:21:46.872Z,5.40
2023-02-19T04:24:23.239Z,9.03
2023-02-19T04:26:51.341Z,9.93
2023-02-19T04:29:19.148Z,12.00
2023-02-19T04:31:46.964Z,3.97
2023-02-19T04:34:16.113Z,5.13
2023-02-19T04:36:43.805Z,5.37
2023-02-19T04:39:11.569Z,3.80
2023-02-19T04:41:39.309Z,6.23
2023-02-19T04:44:07.209Z,7.40
2023-02-19T04:46:35.026Z,6.03
2023-02-19T04:49:02.835Z,7.60
2023-02-19T04:51:31.969Z,7.87
2023-02-19T04:53:59.830Z,4.77
2023-02-19T04:56:27.593Z,9.50
2023-02-19T04:58:55.398Z,8.33
2023-02-19T05:01:23.423Z,8.73
2023-02-19T05:03:51.262Z,12.83
2023-02-19T05:06:19.568Z,3.30
2023-02-19T05:08:48.729Z,4.93
2023-02-19T05:11:16.580Z,5.63
2023-02-19T05:13:44.413Z,8.80
2023-02-19T05:16:15.896Z,6.93
2023-02-19T05:18:44.877Z,5.77
2023-02-19T05:21:13.205Z,9.63
2023-02-19T05:23:41.672Z,1.00
2023-02-19T05:26:13.980Z,7.70
2023-02-19T05:28:41.775Z,6.67
2023-02-19T05:31:10.908Z,7.17
2023-02-19T05:33:39.087Z,6.37
2023-02-19T05:36:09.085Z,3.13
2023-02-19T05:38:37.723Z,5.47
2023-02-19T05:41:12.063Z,5.27
2023-02-19T05:43:41.051Z,7.10
2023-02-19T05:46:09.556Z,5.97
2023-02-19T05:48:37.742Z,2.77
2023-02-19T05:51:08.108Z,9.87
2023-02-19T05:53:36.713Z,9.93
2023-02-19T05:56:05.259Z,10.27
2023-02-19T05:58:34.442Z,4.47
2023-02-19T06:01:02.252Z,7.10
2023-02-19T06:03:30.032Z,2.47
2023-02-19T06:05:57.887Z,7.73
2023-02-19T06:08:25.754Z,6.33
2023-02-19T06:10:53.606Z,9.33
2023-02-19T06:13:21.352Z,6.10
2023-02-19T06:15:50.697Z,7.33
2023-02-19T06:18:18.459Z,8.13
2023-02-19T06:20:46.275Z,6.13
2023-02-19T06:23:14.177Z,5.40
2023-02-19T06:25:42.018Z,11.40
2023-02-19T06:28:10.594Z,6.00
2023-02-19T06:30:38.320Z,6.80
2023-02-19T06:33:07.489Z,4.50
2023-02-19T06:35:35.310Z,6.30
2023-02-19T06:38:03.360Z,5.50
2023-02-19T06:40:31.150Z,10.43
2023-02-19T06:42:58.834Z,4.57
2023-02-19T06:45:26.555Z,7.13
2023-02-19T06:47:54.281Z,8.93
2023-02-19T06:50:23.600Z,5.63
2023-02-19T06:52:51.347Z,8.77
2023-02-19T06:55:19.059Z,6.27
2023-02-19T06:57:46.785Z,3.83
2023-02-19T07:00:15.409Z,6.07
2023-02-19T07:02:44.856Z,10.70
2023-02-19T07:05:18.244Z,5.50
2023-02-19T07:07:47.935Z,5.10
2023-02-19T07:10:15.736Z,5.47
2023-02-19T07:12:43.533Z,3.93
2023-02-19T07:15:11.562Z,4.33
2023-02-19T07:17:39.285Z,3.07
2023-02-19T07:20:07.595Z,5.33
2023-02-19T07:22:35.292Z,4.30
2023-02-19T07:25:04.387Z,5.33
2023-02-19T07:27:32.287Z,5.17
2023-02-19T07:30:00.718Z,5.63
2023-02-19T07:32:28.692Z,5.77
2023-02-19T07:34:56.484Z,5.03
2023-02-19T07:37:24.269Z,4.13
2023-02-19T07:39:52.110Z,6.47
2023-02-19T07:42:21.208Z,4.10
2023-02-19T07:44:48.910Z,3.40
2023-02-19T07:47:16.691Z,4.57
2023-02-19T07:49:44.606Z,6.47
2023-02-19T07:52:12.387Z,4.30
2023-02-19T07:54:40.152Z,3.13
2023-02-19T07:57:07.970Z,5.77
2023-02-19T07:59:37.116Z,5.17
2023-02-19T08:02:22.332Z,4.23
2023-02-19T08:04:52.084Z,4.43
2023-02-19T08:07:19.865Z,7.00
2023-02-19T08:10:07.762Z,5.97
2023-02-19T08:12:58.176Z,6.17
2023-02-19T08:15:27.493Z,2.83
2023-02-19T08:17:55.243Z,5.50
2023-02-19T08:20:22.970Z,3.63
2023-02-19T08:22:50.742Z,3.50
2023-02-19T08:25:18.544Z,3.67
2023-02-19T08:27:46.303Z,5.40
2023-02-19T08:30:14.335Z,6.07
2023-02-19T08:32:43.507Z,3.27
2023-02-19T08:35:11.374Z,6.50
2023-02-19T08:37:39.204Z,7.23
2023-02-19T08:40:07.201Z,2.57
2023-02-19T08:42:34.981Z,3.97
2023-02-19T08:45:02.812Z,7.23
2023-02-19T08:47:30.716Z,8.33
2023-02-19T08:49:59.874Z,5.57
2023-02-19T08:52:27.883Z,3.60
2023-02-19T08:54:56.571Z,7.03
2023-02-19T08:57:26.731Z,5.87
2023-02-19T08:59:54.492Z,3.57
2023-02-19T09:02:22.261Z,2.13
2023-02-19T09:04:50.035Z,5.50
2023-02-19T09:07:19.445Z,9.53
2023-02-19T09:09:47.249Z,5.57
2023-02-19T09:12:15.072Z,6.40
2023-02-19T09:14:42.905Z,5.20
2023-02-19T09:17:10.685Z,7.00
2023-02-19T09:19:38.488Z,6.30
2023-02-19T09:22:07.179Z,6.40
2023-02-19T09:24:36.241Z,6.13
2023-02-19T09:27:04.165Z,7.60
2023-02-19T09:29:31.951Z,6.07
2023-02-19T09:32:00.554Z,4.97
2023-02-19T09:34:30.110Z,5.77
2023-02-19T09:36:57.882Z,5.00
2023-02-19T10:45:48.623Z,4.03
2023-02-19T10:48:24.806Z,3.17
2023-02-19T10:50:58.119Z,4.40
2023-02-19T10:53:40.044Z,2.83
2023-02-19T10:56:09.946Z,4.03
2023-02-19T10:58:40.036Z,2.17
2023-02-19T11:01:15.676Z,1.13
2023-02-19T11:03:44.025Z,1.20
2023-02-19T11:06:14.249Z,1.30
2023-02-19T11:08:50.647Z,3.97
2023-02-19T11:11:34.729Z,6.17
2023-02-19T11:14:06.995Z,2.97
2023-02-19T11:16:44.840Z,4.10
2023-02-19T11:19:32.764Z,2.27
2023-02-19T11:22:02.346Z,4.30
2023-02-19T11:24:35.297Z,1.93
2023-02-19T11:27:05.243Z,3.00
2023-02-19T11:29:34.926Z,1.47
2023-02-19T11:32:30.639Z,5.50
2023-02-19T11:35:19.004Z,4.20
2023-02-19T11:37:58.780Z,5.27
2023-02-19T11:40:38.899Z,5.83
2023-02-19T11:43:21.306Z,4.73
2023-02-19T11:45:58.598Z,6.57
2023-02-19T11:48:44.572Z,1.57
2023-02-19T11:51:32.517Z,2.43
2023-02-19T11:54:15.176Z,3.53
2023-02-19T11:56:44.691Z,3.03
2023-02-19T11:59:22.684Z,6.20
2023-02-19T12:02:17.857Z,3.37
2023-02-19T12:05:11.875Z,5.43
2023-02-19T12:08:02.004Z,2.67
2023-02-19T12:10:37.091Z,8.67
2023-02-19T12:13:15.907Z,6.27
2023-02-19T12:15:57.422Z,3.23
2023-02-19T12:18:51.248Z,2.73
2023-02-19T12:21:34.705Z,8.10
2023-02-19T12:24:19.883Z,2.30
2023-02-19T12:27:00.322Z,6.07
2023-02-19T12:29:59.297Z,1.27
2023-02-19T12:32:45.165Z,0.40
2023-02-19T12:35:54.106Z,0.30
2023-02-19T12:38:33.571Z,2.23
2023-02-19T12:41:16.117Z,0.90
2023-02-19T12:43:52.588Z,0.40
2023-02-19T12:46:25.524Z,0.70
2023-02-19T12:48:59.017Z,0.40
2023-02-19T12:51:29.863Z,0.40
2023-02-19T12:54:03.885Z,0.77
2023-02-19T12:56:37.269Z,0.50
2023-02-19T12:59:11.798Z,0.37
2023-02-19T13:01:46.679Z,0.80
2023-02-19T13:04:31.052Z,1.53
2023-02-19T13:07:03.412Z,0.40
2023-02-19T13:09:38.428Z,1.43
2023-02-19T13:12:12.630Z,0.40
2023-02-19T13:14:44.620Z,0.37
2023-02-19T13:17:22.187Z,0.83
2023-02-19T13:19:54.298Z,1.60
2023-02-19T13:22:48.888Z,1.03
2023-02-19T13:25:20.601Z,1.40
2023-02-19T13:27:59.456Z,0.67
2023-02-19T13:30:38.389Z,0.70
2023-02-19T13:33:22.869Z,1.37
2023-02-19T13:36:13.530Z,0.97
2023-02-19T13:38:44.222Z,3.43
2023-02-19T13:41:22.706Z,0.93
2023-02-19T13:43:58.214Z,3.27
2023-02-19T13:46:26.979Z,1.30
2023-02-19T13:49:26.930Z,2.70
2023-02-19T13:51:55.573Z,1.13
2023-02-19T13:54:28.826Z,0.97
2023-02-19T13:57:31.372Z,1.03
2023-02-19T14:00:00.134Z,0.40
2023-02-19T14:02:32.377Z,0.60
2023-02-19T14:05:02.509Z,0.30
2023-02-19T14:07:52.817Z,0.30
2023-02-19T14:11:02.257Z,0.30
2023-02-19T14:14:06.808Z,1.10
2023-02-19T14:17:01.277Z,0.70
2023-02-19T14:20:00.249Z,1.50
2023-02-19T14:23:12.500Z,0.70
2023-02-19T14:26:02.439Z,1.50
2023-02-19T14:28:36.533Z,0.30
2023-02-19T14:31:14.420Z,0.30
2023-02-19T14:33:47.500Z,1.00
2023-02-19T14:36:35.028Z,0.63
2023-02-19T14:39:06.478Z,0.30
2023-02-19T14:41:39.094Z,1.20
2023-02-19T14:44:13.791Z,2.57
2023-02-19T14:46:52.093Z,3.03
2023-02-19T14:49:26.605Z,1.37
2023-02-19T14:51:59.472Z,0.67
2023-02-19T14:54:42.498Z,0.70
2023-02-19T14:57:18.247Z,0.60
2023-02-19T14:59:58.649Z,1.87
2023-02-19T15:02:29.339Z,0.70
2023-02-19T15:04:58.646Z,3.10
2023-02-19T15:07:30.249Z,0.70
2023-02-19T15:10:05.018Z,0.80
2023-02-19T15:12:37.215Z,0.40
2023-02-19T15:15:07.147Z,0.37
2023-02-19T15:17:41.690Z,0.40
2023-02-19T15:20:13.255Z,0.50
2023-02-19T15:22:42.574Z,2.20
2023-02-19T15:25:18.758Z,0.37
2023-02-19T15:27:46.679Z,0.27
2023-02-19T15:30:22.992Z,0.70
2023-02-19T15:32:56.666Z,0.50
2023-02-19T15:35:26.442Z,1.70
2023-02-19T15:37:56.211Z,0.17
2023-02-19T15:40:29.814Z,2.10
2023-02-19T15:42:58.889Z,0.70
2023-02-19T15:45:30.965Z,0.30
2023-02-19T15:48:06.151Z,0.30
2023-02-19T15:50:35.914Z,0.30
2023-02-19T15:53:09.293Z,0.50
2023-02-19T15:55:41.807Z,0.80
2023-02-19T15:58:16.432Z,0.50
2023-02-19T16:00:49.956Z,0.60
2023-02-19T16:03:21.874Z,0.93
2023-02-19T16:06:00.424Z,2.27
2023-02-19T16:08:31.646Z,0.47
2023-02-19T16:11:01.525Z,0.97
2023-02-19T16:13:31.506Z,9.10
2023-02-19T16:16:04.884Z,0.10
2023-02-19T16:18:35.247Z,1.20
2023-02-19T16:21:09.131Z,2.40
2023-02-19T16:23:42.358Z,4.63
2023-02-19T16:26:10.279Z,3.40
2023-02-19T16:28:39.751Z,1.37
2023-02-19T16:31:09.990Z,9.37
2023-02-19T16:33:41.724Z,2.43
2023-02-19T16:36:37.883Z,1.93
2023-02-19T16:39:20.048Z,0.27
2023-02-19T16:42:15.467Z,0.30
2023-02-19T16:44:44.114Z,0.90
2023-02-19T16:47:18.314Z,0.87
2023-02-19T16:49:47.539Z,0.50
2023-02-19T16:52:17.053Z,1.27
2023-02-19T16:54:45.016Z,0.80
2023-02-19T16:57:12.999Z,2.30
2023-02-19T16:59:40.933Z,2.13
2023-02-19T17:02:12.627Z,0.57
2023-02-19T17:04:40.425Z,0.87
2023-02-19T17:07:14.220Z,1.07
2023-02-19T17:09:42.086Z,0.73
2023-02-19T17:12:13.106Z,1.73
2023-02-19T17:14:41.027Z,0.60
2023-02-19T17:17:08.844Z,1.17
2023-02-19T17:19:36.599Z,1.80
2023-02-19T17:22:04.871Z,1.17
2023-02-19T17:24:34.380Z,3.23
2023-02-19T17:27:02.166Z,1.00
2023-02-19T17:29:33.884Z,1.70
2023-02-19T17:32:02.068Z,1.20
2023-02-19T17:34:30.335Z,1.40
2023-02-19T17:36:58.195Z,3.23
2023-02-19T17:39:25.994Z,3.67
2023-02-19T17:41:55.171Z,3.07
2023-02-19T17:44:22.944Z,2.10
2023-02-19T17:46:50.825Z,3.30
2023-02-19T17:49:19.662Z,2.27
2023-02-19T17:51:47.448Z,1.87
2023-02-19T17:54:15.317Z,4.17
2023-02-19T17:56:46.057Z,4.27
2023-02-19T17:59:16.847Z,3.63
2023-02-19T18:01:46.211Z,5.80
2023-02-19T18:04:14.225Z,4.87
2023-02-19T18:06:42.889Z,2.80
2023-02-19T18:09:11.382Z,2.67
2023-02-19T18:11:39.248Z,4.80
2023-02-19T18:14:06.997Z,2.03
2023-02-19T18:16:36.176Z,2.50
2023-02-19T18:19:04.342Z,3.13
2023-02-19T18:21:32.080Z,1.30
2023-02-19T18:24:00.016Z,1.83
2023-02-19T18:26:27.853Z,2.23
2023-02-19T18:28:55.800Z,2.47
2023-02-19T18:31:23.676Z,1.63
2023-02-19T18:33:52.925Z,1.90
2023-02-19T18:36:20.814Z,4.20
2023-02-19T18:38:48.711Z,1.53
2023-02-19T18:41:20.206Z,1.03
2023-02-19T18:43:49.137Z,3.37
2023-02-19T18:46:17.479Z,0.87
2023-02-19T18:48:45.187Z,2.23
2023-02-19T18:51:14.438Z,1.83
2023-02-19T18:53:43.541Z,2.97
2023-02-19T18:56:11.327Z,2.63
2023-02-19T18:58:39.126Z,2.50
2023-02-19T19:01:09.882Z,1.90
2023-02-19T19:03:37.930Z,2.30
2023-02-19T19:06:06.167Z,4.20
2023-02-19T19:08:35.472Z,0.70
2023-02-19T19:11:03.302Z,1.53
2023-02-19T19:13:31.207Z,2.17
2023-02-19T19:15:58.987Z,2.67
2023-02-19T19:18:27.958Z,2.43
2023-02-19T19:21:00.851Z,3.10
2023-02-19T19:23:28.629Z,3.53
2023-02-19T19:25:57.999Z,2.50
2023-02-19T19:28:25.826Z,4.87
2023-02-19T19:30:53.769Z,3.23
2023-02-19T19:33:21.639Z,4.27
2023-02-19T19:35:49.409Z,4.47
2023-02-19T19:38:17.363Z,3.13
2023-02-19T19:40:45.286Z,4.43
2023-02-19T19:43:14.404Z,4.83
2023-02-19T19:45:42.175Z,4.00
2023-02-19T19:48:10.044Z,6.27
2023-02-19T19:50:37.852Z,3.97
2023-02-19T19:53:05.680Z,4.67
2023-02-19T19:55:33.507Z,2.03
2023-02-19T19:58:01.462Z,3.83
2023-02-19T20:00:30.983Z,5.50
2023-02-19T20:02:58.774Z,2.60
2023-02-19T20:05:26.867Z,3.60
2023-02-19T20:07:55.004Z,4.30
2023-02-19T20:10:23.070Z,4.23
2023-02-19T20:12:50.899Z,4.60
2023-02-19T20:15:22.133Z,4.50
2023-02-19T20:17:51.555Z,3.43
2023-02-19T20:20:19.990Z,3.63
2023-02-19T20:22:47.725Z,3.40
2023-02-19T20:25:16.126Z,3.80
2023-02-19T20:27:44.014Z,3.73
2023-02-19T20:30:14.796Z,3.77
2023-02-19T20:32:42.845Z,4.23
2023-02-19T20:35:12.419Z,6.27
2023-02-19T20:37:40.479Z,3.43
2023-02-19T20:40:10.331Z,4.07
2023-02-19T20:42:38.185Z,4.10
2023-02-19T20:45:06.764Z,3.93
2023-02-19T20:47:34.537Z,3.53
2023-02-19T20:50:02.297Z,3.93
2023-02-19T20:52:31.367Z,3.63
2023-02-19T20:54:59.297Z,4.73
2023-02-19T20:57:27.080Z,6.80
2023-02-19T20:59:54.852Z,3.97
2023-02-19T21:02:27.714Z,3.97
2023-02-19T21:04:55.818Z,6.17
2023-02-19T21:07:24.115Z,3.87
2023-02-19T21:09:53.547Z,5.83
2023-02-19T21:12:22.133Z,7.10
2023-02-19T21:14:50.520Z,6.80
2023-02-19T21:17:18.524Z,5.37
2023-02-19T21:19:50.061Z,4.80
2023-02-19T21:22:18.127Z,5.87
2023-02-19T21:24:49.551Z,5.93
2023-02-19T21:27:18.892Z,6.97
2023-02-19T21:29:47.084Z,6.90
2023-02-19T21:32:15.035Z,6.23
2023-02-19T21:34:43.462Z,6.43
2023-02-19T21:37:11.306Z,4.80
2023-02-19T21:39:39.150Z,7.07
2023-02-19T21:42:07.081Z,4.97
2023-02-19T21:44:36.499Z,7.17
2023-02-19T21:47:04.355Z,6.47
2023-02-19T21:49:32.096Z,7.00
2023-02-19T21:51:59.812Z,9.80
2023-02-19T21:54:27.613Z,7.27
2023-02-19T21:56:55.961Z,8.30
2023-02-19T21:59:24.201Z,4.33
2023-02-19T22:01:53.785Z,6.80
2023-02-19T22:04:24.503Z,5.67
2023-02-19T22:06:56.003Z,6.17
2023-02-19T22:09:24.082Z,5.57
2023-02-19T22:11:51.962Z,6.50
2023-02-19T22:14:19.798Z,8.07
2023-02-19T22:16:47.627Z,9.17
2023-02-19T22:19:16.891Z,8.57
2023-02-19T22:21:45.667Z,6.97
2023-02-19T22:24:17.719Z,6.07
2023-02-19T22:26:46.054Z,7.63
2023-02-19T22:29:16.257Z,8.43
2023-02-19T22:31:44.766Z,9.77
2023-02-19T22:34:12.950Z,8.50
2023-02-19T22:36:42.587Z,5.90
2023-02-19T22:39:18.500Z,7.37
2023-02-19T22:41:46.418Z,9.13
2023-02-19T22:44:14.250Z,8.30
2023-02-19T22:46:47.636Z,8.90
2023-02-19T22:49:15.547Z,7.87
2023-02-19T22:51:51.282Z,8.53
2023-02-19T22:54:21.833Z,10.47
2023-02-19T22:56:49.606Z,7.07
2023-02-19T22:59:17.640Z,9.23
2023-02-19T23:01:45.433Z,8.57
2023-02-19T23:04:13.243Z,8.10
2023-02-19T23:06:43.388Z,9.23
2023-02-19T23:09:17.006Z,12.77
2023-02-19T23:11:45.737Z,14.67
2023-02-19T23:14:14.533Z,8.63
2023-02-19T23:16:42.344Z,7.63
2023-02-19T23:19:12.523Z,8.10
2023-02-19T23:21:42.020Z,7.37
2023-02-19T23:24:10.867Z,7.57
2023-02-19T23:26:44.411Z,11.07
2023-02-19T23:29:13.094Z,8.20
2023-02-19T23:31:40.962Z,8.40
2023-02-19T23:34:09.028Z,7.97
2023-02-19T23:36:41.555Z,6.77
2023-02-19T23:39:11.443Z,8.10
2023-02-19T23:41:39.601Z,8.43
2023-02-19T23:44:08.723Z,7.63
2023-02-19T23:46:36.563Z,8.83
2023-02-19T23:49:04.367Z,8.03
2023-02-19T23:51:32.078Z,9.53
2023-02-19T23:53:59.817Z,9.03
2023-02-19T23:56:29.664Z,10.20
2023-02-19T23:58:57.485Z,11.27
